Time;durP1;ratioP1;P1;durP2;ratioP2;P2;SDS_P1;SDS_P2;PMS_P1;PMS_P2;Temp;Humidity;BMP_temperature;BMP_pressure;BME280_temperature;BME280_humidity;BME280_pressure;Samples;Min_cycle;Max_cycle;Signal;HPM_P1;HPM_P2
2021/06/09 00:01:52;;;;;;;17.92;8.55;;;;;;;;;;5080409;28;20066;-88
2021/06/09 00:04:18;;;;;;;36.50;8.73;;;;;;;;;;5080445;28;20410;-87
2021/06/09 00:06:44;;;;;;;19.02;9.32;;;;;;;;;;5080096;28;20425;-86
2021/06/09 00:09:10;;;;;;;17.08;7.57;;;;;;;;;;5080378;28;20055;-87
2021/06/09 00:11:37;;;;;;;14.00;8.13;;;;;;;;;;5080169;28;20103;-87
2021/06/09 00:14:04;;;;;;;11.32;7.68;;;;;;;;;;5079974;28;20429;-87
2021/06/09 00:16:30;;;;;;;16.83;7.40;;;;;;;;;;5079221;28;20435;-87
2021/06/09 00:18:58;;;;;;;14.43;7.20;;;;;;;;;;5079135;28;20024;-87
2021/06/09 00:21:24;;;;;;;12.75;7.38;;;;;;;;;;5079919;28;20054;-89
2021/06/09 00:23:50;;;;;;;15.23;6.60;;;;;;;;;;5078940;28;20045;-87
2021/06/09 00:26:18;;;;;;;15.57;7.32;;;;;;;;;;5079979;28;20025;-85
2021/06/09 00:28:45;;;;;;;14.48;7.10;;;;;;;;;;5079778;28;20021;-85
2021/06/09 00:31:12;;;;;;;13.73;7.93;;;;;;;;;;5079846;28;20021;-86
2021/06/09 00:33:38;;;;;;;12.63;7.30;;;;;;;;;;5079959;28;20036;-85
2021/06/09 00:36:05;;;;;;;11.82;7.10;;;;;;;;;;5079431;28;20357;-87
2021/06/09 00:38:31;;;;;;;11.70;7.18;;;;;;;;;;5080091;28;20035;-86
2021/06/09 00:40:58;;;;;;;16.10;7.22;;;;;;;;;;5079850;28;20017;-86
2021/06/09 00:43:27;;;;;;;10.93;7.00;;;;;;;;;;5079629;28;20372;-86
2021/06/09 00:46:00;;;;;;;14.30;7.35;;;;;;;;;;5079642;28;20364;-87
2021/06/09 00:48:29;;;;;;;15.63;7.47;;;;;;;;;;5079376;28;20029;-87
2021/06/09 00:50:56;;;;;;;12.00;6.35;;;;;;;;;;5079490;28;20036;-87
2021/06/09 00:53:28;;;;;;;10.13;6.70;;;;;;;;;;5078087;28;20054;-85
2021/06/09 00:55:58;;;;;;;11.80;6.20;;;;;;;;;;5078381;28;20108;-86
2021/06/09 00:58:25;;;;;;;10.75;6.13;;;;;;;;;;5079367;28;20021;-86
2021/06/09 01:00:51;;;;;;;9.93;6.18;;;;;;;;;;5079110;28;20090;-87
2021/06/09 01:03:17;;;;;;;14.32;6.07;;;;;;;;;;5079049;28;20379;-86
2021/06/09 01:05:43;;;;;;;12.13;6.13;;;;;;;;;;5079141;28;20060;-86
2021/06/09 01:08:09;;;;;;;14.18;6.18;;;;;;;;;;5079192;28;20028;-86
2021/06/09 01:10:36;;;;;;;24.73;6.50;;;;;;;;;;5079091;28;20031;-85
2021/06/09 01:13:02;;;;;;;10.57;5.65;;;;;;;;;;5077870;28;20318;-86
2021/06/09 01:15:29;;;;;;;12.05;6.25;;;;;;;;;;5078892;28;20078;-86
2021/06/09 01:17:55;;;;;;;13.77;5.88;;;;;;;;;;5078796;28;20024;-86
2021/06/09 01:20:22;;;;;;;8.02;6.25;;;;;;;;;;5078639;28;20020;-86
2021/06/09 01:22:48;;;;;;;9.95;6.55;;;;;;;;;;5079118;28;20324;-87
2021/06/09 01:25:14;;;;;;;10.65;6.20;;;;;;;;;;5077774;28;20028;-86
2021/06/09 01:27:41;;;;;;;16.40;6.70;;;;;;;;;;5078493;28;20059;-86
2021/06/09 01:30:11;;;;;;;14.18;6.03;;;;;;;;;;5078616;28;20028;-86
2021/06/09 01:32:38;;;;;;;11.85;6.57;;;;;;;;;;5078229;28;20032;-86
2021/06/09 01:35:05;;;;;;;15.95;6.53;;;;;;;;;;5078810;28;20021;-89
2021/06/09 01:37:31;;;;;;;10.63;6.43;;;;;;;;;;5078580;28;20024;-88
2021/06/09 01:40:00;;;;;;;12.27;6.45;;;;;;;;;;5078747;28;20028;-88
2021/06/09 01:42:27;;;;;;;14.10;6.85;;;;;;;;;;5077514;28;20024;-88
2021/06/09 01:44:53;;;;;;;16.08;6.47;;;;;;;;;;5077415;28;20071;-88
2021/06/09 01:47:20;;;;;;;16.48;6.60;;;;;;;;;;5078041;28;20058;-88
2021/06/09 01:49:46;;;;;;;12.25;6.72;;;;;;;;;;5077961;28;20391;-88
2021/06/09 01:52:13;;;;;;;12.48;7.05;;;;;;;;;;5077951;28;20041;-89
2021/06/09 01:54:39;;;;;;;12.90;7.40;;;;;;;;;;5078166;28;20035;-89
2021/06/09 01:57:06;;;;;;;15.05;7.18;;;;;;;;;;5078494;28;20423;-89
2021/06/09 01:59:33;;;;;;;17.27;7.22;;;;;;;;;;5077061;28;20051;-88
2021/06/09 02:01:59;;;;;;;9.90;7.43;;;;;;;;;;5078084;28;20019;-89
2021/06/09 02:04:25;;;;;;;11.18;7.20;;;;;;;;;;5078280;28;20020;-88
2021/06/09 02:06:53;;;;;;;21.15;8.13;;;;;;;;;;5077795;28;20040;-88
2021/06/09 02:09:20;;;;;;;17.55;7.10;;;;;;;;;;5078059;28;20066;-85
2021/06/09 02:11:46;;;;;;;14.75;7.80;;;;;;;;;;5077875;28;20410;-86
2021/06/09 02:14:13;;;;;;;16.48;7.22;;;;;;;;;;5077815;28;20108;-87
2021/06/09 02:16:41;;;;;;;12.75;7.20;;;;;;;;;;5077821;28;20054;-86
2021/06/09 02:19:08;;;;;;;14.95;7.32;;;;;;;;;;5077966;28;20025;-86
2021/06/09 02:21:36;;;;;;;12.45;7.45;;;;;;;;;;5077599;28;20016;-86
2021/06/09 02:24:02;;;;;;;18.15;8.25;;;;;;;;;;5077585;28;20036;-86
2021/06/09 02:26:28;;;;;;;11.20;7.22;;;;;;;;;;5077618;28;20096;-86
2021/06/09 02:29:04;;;;;;;15.25;8.35;;;;;;;;;;5077569;28;20029;-86
2021/06/09 02:31:31;;;;;;;9.73;7.70;;;;;;;;;;5077597;28;20102;-87
2021/06/09 02:33:57;;;;;;;11.82;7.70;;;;;;;;;;5077506;28;20399;-87
2021/06/09 02:36:23;;;;;;;12.55;8.80;;;;;;;;;;5077561;28;20032;-87
2021/06/09 02:38:49;;;;;;;11.05;7.95;;;;;;;;;;5076766;28;20024;-87
2021/06/09 02:41:16;;;;;;;11.70;7.82;;;;;;;;;;5077539;28;20422;-87
2021/06/09 02:43:42;;;;;;;9.68;8.40;;;;;;;;;;5077505;28;20116;-87
2021/06/09 02:46:08;;;;;;;11.48;8.70;;;;;;;;;;5077395;28;20020;-86
2021/06/09 02:48:35;;;;;;;12.10;8.63;;;;;;;;;;5077351;28;20080;-86
2021/06/09 02:51:02;;;;;;;9.70;8.07;;;;;;;;;;5077269;28;20060;-86
2021/06/09 02:53:37;;;;;;;15.02;9.18;;;;;;;;;;5077136;28;20052;-87
2021/06/09 02:56:16;;;;;;;12.82;7.93;;;;;;;;;;5077679;28;20023;-87
2021/06/09 02:58:54;;;;;;;10.75;7.28;;;;;;;;;;5077406;28;20024;-87
2021/06/09 03:01:39;;;;;;;13.75;8.63;;;;;;;;;;5081748;28;20099;-87
2021/06/09 03:04:16;;;;;;;8.25;7.40;;;;;;;;;;5081448;28;20478;-87
2021/06/09 03:07:01;;;;;;;15.38;8.40;;;;;;;;;;5080639;28;20029;-86
2021/06/09 03:09:32;;;;;;;13.95;7.80;;;;;;;;;;5081130;28;20024;-85
2021/06/09 03:12:04;;;;;;;10.18;8.25;;;;;;;;;;5081323;28;20039;-85
2021/06/09 03:17:14;;;;;;;15.00;8.77;;;;;;;;;;5081235;28;20025;-89
2021/06/09 03:19:48;;;;;;;12.77;8.48;;;;;;;;;;5081285;28;20080;-89
2021/06/09 03:22:33;;;;;;;10.55;8.20;;;;;;;;;;5080164;28;20125;-87
2021/06/09 03:25:00;;;;;;;15.60;8.38;;;;;;;;;;5081119;28;20414;-88
2021/06/09 03:27:46;;;;;;;12.10;7.50;;;;;;;;;;5081066;28;20033;-86
2021/06/09 03:30:13;;;;;;;14.10;7.63;;;;;;;;;;5080809;28;20021;-86
2021/06/09 03:32:48;;;;;;;8.40;7.35;;;;;;;;;;5063026;28;20074;-86
2021/06/09 03:35:18;;;;;;;12.68;7.07;;;;;;;;;;5080698;28;20406;-86
2021/06/09 03:37:47;;;;;;;14.38;7.70;;;;;;;;;;5079850;28;20024;-87
2021/06/09 03:40:16;;;;;;;14.60;7.78;;;;;;;;;;5079873;28;20028;-88
2021/06/09 03:42:44;;;;;;;11.68;7.45;;;;;;;;;;5080768;28;20024;-87
2021/06/09 03:45:10;;;;;;;10.43;7.35;;;;;;;;;;5080532;28;20025;-87
2021/06/09 03:47:37;;;;;;;10.73;7.40;;;;;;;;;;5081016;28;20028;-87
2021/06/09 03:50:03;;;;;;;10.13;7.28;;;;;;;;;;5080758;28;20028;-87
2021/06/09 03:52:30;;;;;;;12.85;7.93;;;;;;;;;;5079358;28;20044;-87
2021/06/09 03:54:57;;;;;;;10.52;7.50;;;;;;;;;;5080607;28;20031;-88
2021/06/09 03:57:24;;;;;;;11.10;7.57;;;;;;;;;;5079640;28;20055;-87
2021/06/09 03:59:50;;;;;;;18.98;8.55;;;;;;;;;;5080360;28;20032;-87
2021/06/09 04:02:17;;;;;;;12.45;7.78;;;;;;;;;;5080587;28;20028;-87
2021/06/09 04:04:43;;;;;;;11.57;7.60;;;;;;;;;;5080054;28;20029;-86
2021/06/09 04:07:10;;;;;;;11.23;7.47;;;;;;;;;;5079375;28;20073;-86
2021/06/09 04:09:38;;;;;;;11.10;7.28;;;;;;;;;;5080226;28;20025;-85
2021/06/09 04:12:05;;;;;;;8.10;6.85;;;;;;;;;;5079749;28;20110;-86
2021/06/09 04:14:35;;;;;;;11.68;8.80;;;;;;;;;;5080080;28;20044;-86
2021/06/09 04:17:06;;;;;;;14.73;6.93;;;;;;;;;;5080353;28;20378;-87
2021/06/09 04:19:37;;;;;;;10.57;6.90;;;;;;;;;;5080161;28;20048;-87
2021/06/09 04:22:04;;;;;;;13.40;7.20;;;;;;;;;;5080421;28;20103;-88
2021/06/09 04:24:33;;;;;;;16.40;9.55;;;;;;;;;;5079990;28;20028;-87
2021/06/09 04:27:00;;;;;;;8.32;7.28;;;;;;;;;;5079852;28;20025;-88
2021/06/09 04:29:26;;;;;;;9.40;7.45;;;;;;;;;;5075411;28;20025;-88
2021/06/09 04:31:52;;;;;;;14.88;7.72;;;;;;;;;;5079599;28;20376;-88
2021/06/09 04:34:18;;;;;;;10.02;7.18;;;;;;;;;;5078372;28;20025;-92
2021/06/09 04:36:44;;;;;;;7.70;6.75;;;;;;;;;;5079820;28;20407;-92
2021/06/09 04:39:11;;;;;;;11.55;7.63;;;;;;;;;;5079883;28;20027;-90
2021/06/09 04:41:37;;;;;;;10.75;7.13;;;;;;;;;;5079001;28;20071;-86
2021/06/09 04:44:03;;;;;;;10.75;7.57;;;;;;;;;;5079528;28;20433;-91
2021/06/09 04:46:30;;;;;;;15.35;7.40;;;;;;;;;;5079798;28;20025;-91
2021/06/09 04:48:59;;;;;;;11.32;7.43;;;;;;;;;;5078617;28;20066;-91
2021/06/09 04:51:26;;;;;;;9.95;7.43;;;;;;;;;;5079364;28;20020;-91
2021/06/09 04:53:52;;;;;;;8.02;6.82;;;;;;;;;;5079047;28;20052;-90
2021/06/09 04:56:18;;;;;;;14.05;8.30;;;;;;;;;;5079585;28;20017;-92
2021/06/09 04:58:44;;;;;;;14.85;8.40;;;;;;;;;;5079497;28;20031;-92
2021/06/09 05:01:10;;;;;;;13.90;9.02;;;;;;;;;;5079185;28;20074;-91
2021/06/09 05:03:38;;;;;;;24.90;10.07;;;;;;;;;;5078907;28;20059;-91
2021/06/09 05:06:04;;;;;;;16.48;8.75;;;;;;;;;;5079160;28;20036;-91
2021/06/09 05:08:30;;;;;;;17.38;8.52;;;;;;;;;;5078273;28;20069;-91
2021/06/09 05:10:56;;;;;;;11.73;8.25;;;;;;;;;;5079014;28;20402;-91
2021/06/09 05:13:33;;;;;;;12.25;7.60;;;;;;;;;;5079135;28;20032;-91
2021/06/09 05:16:07;;;;;;;11.02;6.78;;;;;;;;;;5079269;28;20099;-92
2021/06/09 05:18:38;;;;;;;7.45;6.55;;;;;;;;;;5079114;28;20041;-91
2021/06/09 05:21:05;;;;;;;10.10;6.27;;;;;;;;;;5078683;28;20031;-91
2021/06/09 05:23:36;;;;;;;9.27;6.40;;;;;;;;;;5078067;28;20394;-91
2021/06/09 05:26:03;;;;;;;10.00;6.53;;;;;;;;;;5078021;28;20025;-92
2021/06/09 05:28:30;;;;;;;8.70;6.45;;;;;;;;;;5079104;28;20096;-91
2021/06/09 05:30:58;;;;;;;8.13;6.32;;;;;;;;;;5079025;28;20032;-91
2021/06/09 05:33:24;;;;;;;9.32;6.65;;;;;;;;;;5078506;28;20024;-91
2021/06/09 05:35:54;;;;;;;9.68;6.60;;;;;;;;;;5078615;28;20020;-93
2021/06/09 05:38:20;;;;;;;15.20;12.93;;;;;;;;;;5077657;28;20120;-90
2021/06/09 05:40:47;;;;;;;10.70;6.82;;;;;;;;;;5077552;28;20031;-91
2021/06/09 05:43:13;;;;;;;12.80;6.68;;;;;;;;;;5077499;28;20424;-90
2021/06/09 05:45:39;;;;;;;12.23;10.80;;;;;;;;;;5077407;28;20047;-89
2021/06/09 05:48:06;;;;;;;8.93;6.68;;;;;;;;;;5077608;28;20024;-90
2021/06/09 05:50:32;;;;;;;9.13;6.03;;;;;;;;;;5077830;28;20120;-90
2021/06/09 05:53:04;;;;;;;11.38;9.05;;;;;;;;;;5078382;28;20056;-91
2021/06/09 05:55:32;;;;;;;10.88;7.13;;;;;;;;;;5077539;28;20035;-94
2021/06/09 05:58:03;;;;;;;12.35;6.57;;;;;;;;;;5077896;28;20314;-93
2021/06/09 06:00:30;;;;;;;8.32;6.22;;;;;;;;;;5078230;28;20024;-95
2021/06/09 06:02:56;;;;;;;13.85;7.90;;;;;;;;;;5078100;28;20032;-75
2021/06/09 06:05:22;;;;;;;15.05;10.88;;;;;;;;;;5076654;28;20311;-75
2021/06/09 06:07:49;;;;;;;11.30;8.38;;;;;;;;;;5077353;28;20031;-75
2021/06/09 06:10:16;;;;;;;14.18;8.40;;;;;;;;;;5077414;28;20032;-75
2021/06/09 06:12:43;;;;;;;16.27;9.82;;;;;;;;;;5077263;28;20356;-75
2021/06/09 06:15:12;;;;;;;11.88;8.07;;;;;;;;;;5077253;28;20090;-74
2021/06/09 06:17:39;;;;;;;18.35;8.02;;;;;;;;;;5077549;28;20025;-75
2021/06/09 06:20:05;;;;;;;11.45;7.45;;;;;;;;;;5077302;28;20422;-75
2021/06/09 06:22:32;;;;;;;11.40;6.63;;;;;;;;;;5077350;28;20040;-75
2021/06/09 06:24:58;;;;;;;8.27;6.80;;;;;;;;;;5077433;28;20044;-75
2021/06/09 06:27:25;;;;;;;9.55;5.85;;;;;;;;;;5077420;28;20028;-75
2021/06/09 06:29:51;;;;;;;7.85;5.53;;;;;;;;;;5077273;28;20111;-75
2021/06/09 06:32:18;;;;;;;8.65;6.30;;;;;;;;;;5077219;28;20047;-75
2021/06/09 06:34:51;;;;;;;10.45;6.00;;;;;;;;;;5076674;28;20029;-75
2021/06/09 06:37:18;;;;;;;7.57;5.72;;;;;;;;;;5077042;28;20017;-75
2021/06/09 06:39:44;;;;;;;7.40;6.22;;;;;;;;;;5077047;28;20025;-75
2021/06/09 06:42:10;;;;;;;10.15;6.40;;;;;;;;;;5077273;28;20040;-75
2021/06/09 06:44:38;;;;;;;9.40;6.25;;;;;;;;;;5077138;28;20017;-74
2021/06/09 06:47:04;;;;;;;7.43;6.45;;;;;;;;;;5077039;28;20041;-74
2021/06/09 06:49:31;;;;;;;9.40;6.25;;;;;;;;;;5076998;28;20025;-75
2021/06/09 06:51:57;;;;;;;8.20;6.55;;;;;;;;;;5076787;28;20394;-75
2021/06/09 06:54:24;;;;;;;9.68;5.78;;;;;;;;;;5075780;28;20052;-75
2021/06/09 06:56:53;;;;;;;9.70;6.07;;;;;;;;;;5075804;28;20043;-75
2021/06/09 06:59:21;;;;;;;8.32;5.88;;;;;;;;;;5076784;28;20017;-75
2021/06/09 07:01:47;;;;;;;6.85;6.07;;;;;;;;;;5076823;28;20394;-75
2021/06/09 07:04:15;;;;;;;7.03;5.55;;;;;;;;;;5076927;28;20034;-74
2021/06/09 07:06:43;;;;;;;12.00;6.60;;;;;;;;;;5076082;28;20041;-75
2021/06/09 07:09:09;;;;;;;6.38;4.82;;;;;;;;;;5076980;28;20055;-75
2021/06/09 07:11:36;;;;;;;8.18;5.32;;;;;;;;;;5076743;28;20032;-75
2021/06/09 07:14:02;;;;;;;8.82;5.43;;;;;;;;;;5076760;28;20036;-74
2021/06/09 07:16:30;;;;;;;6.78;5.18;;;;;;;;;;5076759;28;20021;-75
2021/06/09 07:18:57;;;;;;;7.50;5.60;;;;;;;;;;5076520;28;20020;-75
2021/06/09 07:21:23;;;;;;;8.68;5.95;;;;;;;;;;5076695;28;20020;-75
2021/06/09 07:23:50;;;;;;;8.63;6.40;;;;;;;;;;5076309;28;20322;-75
2021/06/09 07:26:17;;;;;;;8.98;5.68;;;;;;;;;;5076317;28;20399;-75
2021/06/09 07:28:55;;;;;;;9.32;5.40;;;;;;;;;;5076719;28;20029;-75
2021/06/09 07:31:32;;;;;;;7.57;5.25;;;;;;;;;;5076446;28;20032;-75
2021/06/09 07:33:59;;;;;;;8.77;6.32;;;;;;;;;;5075488;28;20029;-74
2021/06/09 07:36:27;;;;;;;10.40;5.78;;;;;;;;;;5076496;28;20103;-75
2021/06/09 07:38:56;;;;;;;8.40;5.68;;;;;;;;;;5075470;28;20101;-75
2021/06/09 07:41:26;;;;;;;9.52;5.65;;;;;;;;;;5076693;28;20024;-75
2021/06/09 07:43:52;;;;;;;9.80;5.60;;;;;;;;;;5076473;28;20035;-75
2021/06/09 07:46:21;;;;;;;12.75;6.57;;;;;;;;;;5077554;28;20383;-75
2021/06/09 07:48:48;;;;;;;11.55;6.05;;;;;;;;;;5080138;28;20032;-75
2021/06/09 07:51:15;;;;;;;10.88;5.93;;;;;;;;;;5080050;28;20027;-75
2021/06/09 07:53:42;;;;;;;8.70;5.40;;;;;;;;;;5079804;28;20048;-75
2021/06/09 07:56:11;;;;;;;12.38;5.35;;;;;;;;;;5079961;28;20032;-75
2021/06/09 07:58:38;;;;;;;36.85;7.50;;;;;;;;;;5079871;28;20509;-74
2021/06/09 08:01:04;;;;;;;12.63;5.93;;;;;;;;;;5078722;28;20029;-75
2021/06/09 08:03:31;;;;;;;15.75;6.55;;;;;;;;;;5079944;28;20115;-75
2021/06/09 08:05:58;;;;;;;11.85;5.65;;;;;;;;;;5080089;28;20292;-75
2021/06/09 08:08:25;;;;;;;11.65;6.18;;;;;;;;;;5079940;28;20064;-75
2021/06/09 08:10:51;;;;;;;9.48;5.55;;;;;;;;;;5079729;28;20021;-75
2021/06/09 08:13:18;;;;;;;11.10;5.45;;;;;;;;;;5079602;28;20028;-75
2021/06/09 08:15:44;;;;;;;10.93;5.93;;;;;;;;;;5078689;28;20510;-75
2021/06/09 08:18:12;;;;;;;15.40;6.22;;;;;;;;;;5079721;28;20047;-75
2021/06/09 08:20:48;;;;;;;7.20;4.82;;;;;;;;;;5079482;28;20473;-75
2021/06/09 08:23:15;;;;;;;12.30;5.80;;;;;;;;;;5079610;28;20040;-75
2021/06/09 08:25:41;;;;;;;9.63;6.45;;;;;;;;;;5079383;28;20031;-75
2021/06/09 08:28:07;;;;;;;13.75;5.50;;;;;;;;;;5079369;28;20055;-75
2021/06/09 08:30:33;;;;;;;8.60;5.40;;;;;;;;;;5079284;28;20145;-75
2021/06/09 08:32:59;;;;;;;7.28;5.25;;;;;;;;;;5078946;28;20028;-75
2021/06/09 08:35:26;;;;;;;12.07;5.30;;;;;;;;;;5079163;28;20023;-75
2021/06/09 08:37:52;;;;;;;16.10;6.18;;;;;;;;;;5079295;28;20017;-75
2021/06/09 08:40:18;;;;;;;11.90;5.38;;;;;;;;;;5079260;28;20060;-75
2021/06/09 08:42:45;;;;;;;9.23;5.28;;;;;;;;;;5079035;28;20055;-75
2021/06/09 08:45:12;;;;;;;8.65;4.95;;;;;;;;;;5077974;28;20033;-75
2021/06/09 08:47:38;;;;;;;5.47;4.93;;;;;;;;;;5078984;28;20075;-75
2021/06/09 08:50:05;;;;;;;10.02;5.82;;;;;;;;;;5078968;28;20023;-74
2021/06/09 08:52:32;;;;;;;8.32;4.75;;;;;;;;;;5078780;28;20413;-75
2021/06/09 08:54:59;;;;;;;10.65;5.00;;;;;;;;;;5079599;28;20036;-75
2021/06/09 08:57:27;;;;;;;8.73;4.70;;;;;;;;;;5079591;28;20021;-75
2021/06/09 08:59:53;;;;;;;8.70;4.93;;;;;;;;;;5079402;28;20024;-75
2021/06/09 09:02:19;;;;;;;8.40;4.40;;;;;;;;;;5079271;28;20341;-75
2021/06/09 09:04:45;;;;;;;6.20;4.40;;;;;;;;;;5079565;28;20108;-76
2021/06/09 09:07:12;;;;;;;6.72;5.13;;;;;;;;;;5079959;28;20127;-75
2021/06/09 09:09:39;;;;;;;6.80;5.35;;;;;;;;;;5079865;28;20036;-76
2021/06/09 09:12:06;;;;;;;6.35;4.95;;;;;;;;;;5078644;28;20410;-75
2021/06/09 09:14:32;;;;;;;8.07;4.72;;;;;;;;;;5078906;28;20098;-75
2021/06/09 09:17:02;;;;;;;5.80;4.15;;;;;;;;;;5079246;28;20021;-76
2021/06/09 09:19:30;;;;;;;7.53;4.47;;;;;;;;;;5078861;28;20323;-75
2021/06/09 09:21:56;;;;;;;7.85;4.40;;;;;;;;;;5080044;28;20261;-76
2021/06/09 09:24:36;;;;;;;6.93;4.25;;;;;;;;;;5079385;28;20040;-75
2021/06/09 09:27:03;;;;;;;4.95;3.83;;;;;;;;;;5078825;28;20028;-75
2021/06/09 09:29:29;;;;;;;6.15;3.90;;;;;;;;;;5079512;28;20024;-76
2021/06/09 09:31:55;;;;;;;7.03;4.00;;;;;;;;;;5079543;28;20406;-76
2021/06/09 09:34:42;;;;;;;7.75;4.07;;;;;;;;;;5078198;28;20170;-76
2021/06/09 09:37:18;;;;;;;9.75;4.18;;;;;;;;;;5078882;28;20021;-75
2021/06/09 09:40:04;;;;;;;6.57;3.53;;;;;;;;;;5077535;28;20056;-75
2021/06/09 09:42:32;;;;;;;5.25;3.90;;;;;;;;;;5077751;28;20097;-75
2021/06/09 09:45:14;;;;;;;5.22;4.10;;;;;;;;;;5077817;28;20050;-75
2021/06/09 09:47:40;;;;;;;11.77;4.35;;;;;;;;;;5077646;28;20426;-75
2021/06/09 09:50:06;;;;;;;5.45;3.67;;;;;;;;;;5077990;28;20028;-75
2021/06/09 09:52:47;;;;;;;7.45;3.83;;;;;;;;;;5077535;28;20089;-75
2021/06/09 09:55:13;;;;;;;5.93;4.03;;;;;;;;;;5077840;28;20081;-75
2021/06/09 09:57:39;;;;;;;8.07;3.95;;;;;;;;;;5077649;28;20117;-75
2021/06/09 10:00:06;;;;;;;9.85;4.20;;;;;;;;;;5076773;28;20041;-75
2021/06/09 10:02:33;;;;;;;4.28;3.67;;;;;;;;;;5077485;28;20039;-75
2021/06/09 10:05:09;;;;;;;7.78;3.72;;;;;;;;;;5077354;28;20017;-75
2021/06/09 10:07:37;;;;;;;6.68;4.05;;;;;;;;;;5077388;28;20402;-75
2021/06/09 10:10:03;;;;;;;5.15;3.83;;;;;;;;;;5076929;28;20078;-75
2021/06/09 10:12:30;;;;;;;53.95;45.63;;;;;;;;;;5077847;28;20050;-75
2021/06/09 10:14:56;;;;;;;9.43;7.40;;;;;;;;;;5078043;28;20112;-75
2021/06/09 10:17:23;;;;;;;8.73;6.57;;;;;;;;;;5077488;28;20082;-75
2021/06/09 10:19:56;;;;;;;9.30;6.40;;;;;;;;;;5077534;28;20058;-75
2021/06/09 10:22:23;;;;;;;7.95;4.78;;;;;;;;;;5077983;28;20037;-75
2021/06/09 10:24:52;;;;;;;4.20;3.80;;;;;;;;;;5077398;28;20025;-75
2021/06/09 10:27:19;;;;;;;6.47;4.32;;;;;;;;;;5076164;28;20077;-75
2021/06/09 10:29:46;;;;;;;6.72;5.97;;;;;;;;;;5077152;28;20029;-75
2021/06/09 10:32:13;;;;;;;44.20;33.17;;;;;;;;;;5077149;28;20036;-75
2021/06/09 10:34:42;;;;;;;6.45;4.00;;;;;;;;;;5076096;28;20024;-75
2021/06/09 10:37:09;;;;;;;5.50;3.53;;;;;;;;;;5076002;28;20020;-75
2021/06/09 10:39:36;;;;;;;7.25;3.80;;;;;;;;;;5077115;28;20025;-75
2021/06/09 10:42:05;;;;;;;16.23;3.90;;;;;;;;;;5077185;28;20025;-75
2021/06/09 10:44:33;;;;;;;7.45;3.25;;;;;;;;;;5077095;28;20040;-75
2021/06/09 10:47:00;;;;;;;3.22;2.65;;;;;;;;;;5076997;28;20024;-75
2021/06/09 10:49:31;;;;;;;4.72;3.25;;;;;;;;;;5077043;28;20024;-76
2021/06/09 10:51:57;;;;;;;4.68;3.13;;;;;;;;;;5077054;28;20430;-75
2021/06/09 10:54:24;;;;;;;7.18;3.20;;;;;;;;;;5076144;28;20094;-74
2021/06/09 10:56:51;;;;;;;6.13;3.13;;;;;;;;;;5076671;28;20031;-75
2021/06/09 10:59:28;;;;;;;6.15;2.90;;;;;;;;;;5076033;28;20066;-75
2021/06/09 11:02:00;;;;;;;4.55;2.78;;;;;;;;;;5076861;28;20024;-75
2021/06/09 11:04:27;;;;;;;3.90;3.15;;;;;;;;;;5076965;28;20318;-75
2021/06/09 11:06:55;;;;;;;5.45;3.17;;;;;;;;;;5076829;28;20410;-75
2021/06/09 11:09:29;;;;;;;5.18;3.00;;;;;;;;;;5076695;28;20423;-75
2021/06/09 11:12:18;;;;;;;8.38;3.38;;;;;;;;;;5076692;28;20039;-75
2021/06/09 11:14:44;;;;;;;4.65;3.00;;;;;;;;;;5034891;28;20367;-75
2021/06/09 11:17:10;;;;;;;7.38;3.60;;;;;;;;;;5034943;28;20033;-76
2021/06/09 11:19:38;;;;;;;6.32;3.25;;;;;;;;;;5034932;28;20057;-75
2021/06/09 11:22:18;;;;;;;5.00;3.22;;;;;;;;;;5038937;28;20045;-76
2021/06/09 11:25:03;;;;;;;6.00;3.75;;;;;;;;;;5038702;28;20049;-75
2021/06/09 11:27:29;;;;;;;5.28;3.35;;;;;;;;;;5038700;28;20030;-75
2021/06/09 11:29:55;;;;;;;5.22;3.42;;;;;;;;;;5038660;28;20033;-75
2021/06/09 11:32:23;;;;;;;7.28;3.63;;;;;;;;;;5038648;28;20060;-75
2021/06/09 11:34:56;;;;;;;8.25;3.80;;;;;;;;;;5038241;28;20025;-75
2021/06/09 11:37:22;;;;;;;5.60;3.53;;;;;;;;;;5038436;28;20021;-75
2021/06/09 11:40:01;;;;;;;6.05;3.53;;;;;;;;;;5054168;28;20527;-75
2021/06/09 11:42:27;;;;;;;3.92;3.28;;;;;;;;;;5038412;28;20060;-75
2021/06/09 11:44:53;;;;;;;4.53;3.58;;;;;;;;;;5054081;28;20034;-75
2021/06/09 11:47:26;;;;;;;6.90;3.92;;;;;;;;;;5055001;28;20034;-77
2021/06/09 11:49:54;;;;;;;8.25;4.63;;;;;;;;;;5038286;28;20084;-76
2021/06/09 11:52:20;;;;;;;11.82;3.55;;;;;;;;;;5069748;28;20070;-75
2021/06/09 11:54:47;;;;;;;8.30;3.67;;;;;;;;;;5079685;28;20032;-75
2021/06/09 11:57:21;;;;;;;7.30;4.05;;;;;;;;;;5080041;28;20024;-75
2021/06/09 11:59:49;;;;;;;6.38;4.15;;;;;;;;;;5079805;28;20070;-75
2021/06/09 12:02:18;;;;;;;5.55;3.30;;;;;;;;;;5079080;28;20033;-76
2021/06/09 12:04:48;;;;;;;6.47;3.13;;;;;;;;;;5079766;28;20032;-75
2021/06/09 12:07:24;;;;;;;7.97;3.47;;;;;;;;;;5079798;28;20050;-78
2021/06/09 12:09:51;;;;;;;5.15;3.38;;;;;;;;;;5079793;28;20035;-76
2021/06/09 12:12:22;;;;;;;4.45;3.67;;;;;;;;;;5079375;28;20291;-75
2021/06/09 12:14:50;;;;;;;4.85;3.60;;;;;;;;;;5079664;28;20055;-75
2021/06/09 12:17:19;;;;;;;3.72;2.97;;;;;;;;;;5079499;28;20402;-75
2021/06/09 12:19:46;;;;;;;5.25;3.20;;;;;;;;;;5079445;28;20426;-75
2021/06/09 12:22:32;;;;;;;6.78;3.63;;;;;;;;;;5079320;28;20028;-74
2021/06/09 12:25:01;;;;;;;5.47;3.63;;;;;;;;;;5079654;28;20029;-75
2021/06/09 12:27:28;;;;;;;4.90;3.08;;;;;;;;;;5079322;28;20025;-75
2021/06/09 12:29:54;;;;;;;5.38;3.45;;;;;;;;;;5079362;28;20035;-75
2021/06/09 12:32:23;;;;;;;5.95;3.60;;;;;;;;;;5078688;28;20109;-75
2021/06/09 12:34:52;;;;;;;8.40;3.90;;;;;;;;;;5079153;28;20108;-75
2021/06/09 12:37:19;;;;;;;6.68;3.45;;;;;;;;;;5079173;28;20112;-75
2021/06/09 12:39:45;;;;;;;5.70;3.80;;;;;;;;;;5079200;28;20021;-75
2021/06/09 12:42:12;;;;;;;8.55;3.67;;;;;;;;;;5079163;28;20024;-75
2021/06/09 12:44:48;;;;;;;8.27;4.65;;;;;;;;;;5078249;28;20028;-75
2021/06/09 12:47:23;;;;;;;4.35;3.20;;;;;;;;;;5079291;28;20032;-75
2021/06/09 12:49:49;;;;;;;3.40;3.08;;;;;;;;;;5079183;28;20417;-75
2021/06/09 12:52:15;;;;;;;8.82;3.72;;;;;;;;;;5078896;28;20120;-75
2021/06/09 12:54:59;;;;;;;7.10;3.55;;;;;;;;;;5078762;28;20028;-75
2021/06/09 12:57:29;;;;;;;5.68;3.30;;;;;;;;;;5078635;28;20104;-75
2021/06/09 12:59:55;;;;;;;5.88;3.50;;;;;;;;;;5078053;28;20094;-75
2021/06/09 13:02:21;;;;;;;6.78;3.30;;;;;;;;;;5078977;28;20021;-75
2021/06/09 13:04:48;;;;;;;6.75;3.15;;;;;;;;;;5078769;28;20295;-74
2021/06/09 13:07:22;;;;;;;6.47;3.25;;;;;;;;;;5078616;28;20054;-75
2021/06/09 13:09:54;;;;;;;5.97;3.60;;;;;;;;;;5078612;28;20023;-75
2021/06/09 13:12:25;;;;;;;5.55;3.63;;;;;;;;;;5078788;28;20037;-75
2021/06/09 13:14:51;;;;;;;6.47;4.43;;;;;;;;;;5078260;28;20296;-74
2021/06/09 13:17:17;;;;;;;3.88;3.50;;;;;;;;;;5077655;28;20028;-75
2021/06/09 13:19:44;;;;;;;5.47;3.38;;;;;;;;;;5078559;28;20031;-75
2021/06/09 13:22:10;;;;;;;4.32;3.28;;;;;;;;;;5077572;28;20410;-75
2021/06/09 13:24:38;;;;;;;4.80;3.70;;;;;;;;;;5078209;28;20386;-75
2021/06/09 13:27:07;;;;;;;8.48;3.63;;;;;;;;;;5078197;28;20025;-75
2021/06/09 13:29:38;;;;;;;5.13;3.83;;;;;;;;;;5078141;28;20016;-75
2021/06/09 13:32:04;;;;;;;;;;;;;;;;;;5078750;28;20043;-75
2021/06/09 13:34:30;;;;;;;9.90;4.03;;;;;;;;;;5078067;28;19912;-75
2021/06/09 13:37:01;;;;;;;8.90;3.95;;;;;;;;;;5077915;28;20104;-74
2021/06/09 13:39:28;;;;;;;4.70;3.78;;;;;;;;;;5078115;28;20074;-79
2021/06/09 13:41:55;;;;;;;6.47;3.40;;;;;;;;;;5078149;28;20038;-75
2021/06/09 13:44:21;;;;;;;8.85;3.97;;;;;;;;;;5076959;28;20029;-75
2021/06/09 13:46:49;;;;;;;4.68;3.97;;;;;;;;;;5077964;28;20066;-75
2021/06/09 13:49:28;;;;;;;5.85;4.05;;;;;;;;;;5077805;28;20028;-75
2021/06/09 13:51:54;;;;;;;3.90;3.58;;;;;;;;;;5076517;28;20381;-75
2021/06/09 13:54:46;;;;;;;10.00;4.60;;;;;;;;;;5077135;28;20362;-74
2021/06/09 13:57:15;;;;;;;12.18;4.60;;;;;;;;;;5075916;28;20033;-74
2021/06/09 13:59:45;;;;;;;9.85;4.38;;;;;;;;;;5077619;28;20103;-75
2021/06/09 14:02:17;;;;;;;7.38;3.83;;;;;;;;;;5077755;28;20408;-75
2021/06/09 14:04:45;;;;;;;6.63;3.75;;;;;;;;;;5077320;28;20319;-75
2021/06/09 14:07:19;;;;;;;12.05;5.18;;;;;;;;;;5077514;28;20061;-74
2021/06/09 14:09:53;;;;;;;9.93;4.50;;;;;;;;;;5077532;28;20024;-75
2021/06/09 14:12:19;;;;;;;4.88;3.65;;;;;;;;;;5077435;28;20021;-74
2021/06/09 14:14:46;;;;;;;7.03;4.40;;;;;;;;;;5077339;28;20107;-75
2021/06/09 14:17:26;;;;;;;14.88;6.85;;;;;;;;;;5077340;28;20107;-75
2021/06/09 14:20:05;;;;;;;10.52;4.07;;;;;;;;;;5077201;28;20028;-75
2021/06/09 14:22:32;;;;;;;4.30;3.85;;;;;;;;;;5077328;28;20052;-75
2021/06/09 14:25:06;;;;;;;9.88;3.90;;;;;;;;;;5077316;28;20017;-75
2021/06/09 14:27:32;;;;;;;8.88;4.45;;;;;;;;;;5077201;28;20154;-75
2021/06/09 14:30:12;;;;;;;6.18;3.80;;;;;;;;;;5077242;28;20086;-75
2021/06/09 14:32:59;;;;;;;7.57;3.92;;;;;;;;;;5077102;28;20048;-75
2021/06/09 14:35:27;;;;;;;9.95;3.85;;;;;;;;;;5077055;28;20033;-75
2021/06/09 14:37:53;;;;;;;7.75;4.32;;;;;;;;;;5075990;28;20023;-75
2021/06/09 14:40:19;;;;;;;5.20;3.47;;;;;;;;;;5077106;28;20021;-75
